sensor_id;sensor_type;location;lat;lon;timestamp;P1;durP1;ratioP1;P2;durP2;ratioP2
13487;SDS011;6816;48.506;9.050;2022-11-15T00:00:47;4.97;;;3.87;;
13487;SDS011;6816;48.506;9.050;2022-11-15T00:03:50;5.33;;;4.10;;
13487;SDS011;6816;48.506;9.050;2022-11-15T00:06:51;5.30;;;4.10;;
13487;SDS011;6816;48.506;9.050;2022-11-15T00:09:52;6.70;;;4.13;;
13487;SDS011;6816;48.506;9.050;2022-11-15T00:12:52;4.57;;;3.43;;
13487;SDS011;6816;48.506;9.050;2022-11-15T00:15:54;4.77;;;3.63;;
13487;SDS011;6816;48.506;9.050;2022-11-15T00:18:58;5.00;;;3.33;;
13487;SDS011;6816;48.506;9.050;2022-11-15T00:21:58;4.47;;;3.70;;
13487;SDS011;6816;48.506;9.050;2022-11-15T00:24:59;5.10;;;3.93;;
13487;SDS011;6816;48.506;9.050;2022-11-15T00:28:00;5.07;;;4.10;;
13487;SDS011;6816;48.506;9.050;2022-11-15T00:31:05;5.07;;;3.67;;
13487;SDS011;6816;48.506;9.050;2022-11-15T00:34:07;4.77;;;3.73;;
13487;SDS011;6816;48.506;9.050;2022-11-15T00:37:09;4.20;;;3.27;;
13487;SDS011;6816;48.506;9.050;2022-11-15T00:40:09;5.60;;;3.63;;
13487;SDS011;6816;48.506;9.050;2022-11-15T00:43:12;3.80;;;3.03;;
13487;SDS011;6816;48.506;9.050;2022-11-15T00:46:13;3.13;;;2.63;;
13487;SDS011;6816;48.506;9.050;2022-11-15T00:49:14;4.93;;;2.93;;
13487;SDS011;6816;48.506;9.050;2022-11-15T00:52:14;3.30;;;2.87;;
13487;SDS011;6816;48.506;9.050;2022-11-15T00:55:15;4.20;;;2.93;;
13487;SDS011;6816;48.506;9.050;2022-11-15T00:58:17;5.40;;;3.27;;
13487;SDS011;6816;48.506;9.050;2022-11-15T01:01:18;3.80;;;2.77;;
13487;SDS011;6816;48.506;9.050;2022-11-15T01:04:19;3.90;;;3.10;;
13487;SDS011;6816;48.506;9.050;2022-11-15T01:07:19;4.27;;;3.00;;
13487;SDS011;6816;48.506;9.050;2022-11-15T01:10:20;4.70;;;3.37;;
13487;SDS011;6816;48.506;9.050;2022-11-15T01:13:22;4.00;;;3.00;;
13487;SDS011;6816;48.506;9.050;2022-11-15T01:16:22;3.70;;;3.03;;
13487;SDS011;6816;48.506;9.050;2022-11-15T01:19:23;3.77;;;3.10;;
13487;SDS011;6816;48.506;9.050;2022-11-15T01:22:23;4.23;;;3.13;;
13487;SDS011;6816;48.506;9.050;2022-11-15T01:25:24;3.50;;;2.73;;
13487;SDS011;6816;48.506;9.050;2022-11-15T01:28:25;5.63;;;2.83;;
13487;SDS011;6816;48.506;9.050;2022-11-15T01:31:29;2.83;;;2.43;;
13487;SDS011;6816;48.506;9.050;2022-11-15T01:34:29;3.37;;;2.53;;
13487;SDS011;6816;48.506;9.050;2022-11-15T01:37:30;3.47;;;2.27;;
13487;SDS011;6816;48.506;9.050;2022-11-15T01:40:30;4.60;;;2.90;;
13487;SDS011;6816;48.506;9.050;2022-11-15T01:43:32;4.37;;;3.13;;
13487;SDS011;6816;48.506;9.050;2022-11-15T01:46:36;4.20;;;3.20;;
13487;SDS011;6816;48.506;9.050;2022-11-15T01:49:39;6.77;;;3.60;;
13487;SDS011;6816;48.506;9.050;2022-11-15T01:52:45;4.23;;;3.43;;
13487;SDS011;6816;48.506;9.050;2022-11-15T01:55:46;7.57;;;3.30;;
13487;SDS011;6816;48.506;9.050;2022-11-15T01:58:47;4.20;;;3.37;;
13487;SDS011;6816;48.506;9.050;2022-11-15T02:01:48;4.70;;;3.40;;
13487;SDS011;6816;48.506;9.050;2022-11-15T02:04:49;3.73;;;3.13;;
13487;SDS011;6816;48.506;9.050;2022-11-15T02:07:50;4.10;;;3.13;;
13487;SDS011;6816;48.506;9.050;2022-11-15T02:10:51;3.83;;;3.43;;
13487;SDS011;6816;48.506;9.050;2022-11-15T02:13:52;4.73;;;3.73;;
13487;SDS011;6816;48.506;9.050;2022-11-15T02:16:58;5.57;;;3.40;;
13487;SDS011;6816;48.506;9.050;2022-11-15T02:23:41;4.37;;;3.37;;
13487;SDS011;6816;48.506;9.050;2022-11-15T02:37:06;3.37;;;3.07;;
13487;SDS011;6816;48.506;9.050;2022-11-15T02:43:51;3.20;;;2.90;;
13487;SDS011;6816;48.506;9.050;2022-11-15T02:47:00;3.27;;;2.57;;
13487;SDS011;6816;48.506;9.050;2022-11-15T02:50:14;3.07;;;2.67;;
13487;SDS011;6816;48.506;9.050;2022-11-15T02:53:20;3.20;;;2.90;;
13487;SDS011;6816;48.506;9.050;2022-11-15T02:56:24;4.17;;;3.73;;
13487;SDS011;6816;48.506;9.050;2022-11-15T02:59:33;5.50;;;3.63;;
13487;SDS011;6816;48.506;9.050;2022-11-15T03:02:57;5.10;;;3.23;;
13487;SDS011;6816;48.506;9.050;2022-11-15T03:10:23;4.70;;;3.50;;
13487;SDS011;6816;48.506;9.050;2022-11-15T03:13:49;5.30;;;3.70;;
13487;SDS011;6816;48.506;9.050;2022-11-15T03:20:04;5.70;;;4.27;;
13487;SDS011;6816;48.506;9.050;2022-11-15T03:23:08;5.37;;;4.83;;
13487;SDS011;6816;48.506;9.050;2022-11-15T03:26:11;4.43;;;3.70;;
13487;SDS011;6816;48.506;9.050;2022-11-15T03:29:15;6.27;;;3.93;;
13487;SDS011;6816;48.506;9.050;2022-11-15T03:32:25;4.13;;;3.47;;
13487;SDS011;6816;48.506;9.050;2022-11-15T03:35:30;5.63;;;3.60;;
13487;SDS011;6816;48.506;9.050;2022-11-15T03:38:37;3.83;;;3.07;;
13487;SDS011;6816;48.506;9.050;2022-11-15T03:41:53;3.73;;;3.27;;
13487;SDS011;6816;48.506;9.050;2022-11-15T03:45:22;3.57;;;3.27;;
13487;SDS011;6816;48.506;9.050;2022-11-15T03:48:30;4.07;;;3.40;;
13487;SDS011;6816;48.506;9.050;2022-11-15T03:51:35;4.53;;;3.63;;
13487;SDS011;6816;48.506;9.050;2022-11-15T03:54:36;4.47;;;3.60;;
13487;SDS011;6816;48.506;9.050;2022-11-15T03:57:48;5.27;;;4.10;;
13487;SDS011;6816;48.506;9.050;2022-11-15T04:00:51;4.97;;;3.67;;
13487;SDS011;6816;48.506;9.050;2022-11-15T04:03:51;7.77;;;4.17;;
13487;SDS011;6816;48.506;9.050;2022-11-15T04:06:52;5.07;;;3.93;;
13487;SDS011;6816;48.506;9.050;2022-11-15T04:09:53;6.20;;;3.87;;
13487;SDS011;6816;48.506;9.050;2022-11-15T04:13:02;4.53;;;3.80;;
13487;SDS011;6816;48.506;9.050;2022-11-15T04:16:03;4.83;;;3.53;;
13487;SDS011;6816;48.506;9.050;2022-11-15T04:19:05;6.73;;;4.23;;
13487;SDS011;6816;48.506;9.050;2022-11-15T04:22:24;4.37;;;3.40;;
13487;SDS011;6816;48.506;9.050;2022-11-15T04:25:43;4.57;;;3.10;;
13487;SDS011;6816;48.506;9.050;2022-11-15T04:28:44;4.43;;;3.50;;
13487;SDS011;6816;48.506;9.050;2022-11-15T04:32:06;7.13;;;3.70;;
13487;SDS011;6816;48.506;9.050;2022-11-15T04:35:07;6.50;;;4.10;;
13487;SDS011;6816;48.506;9.050;2022-11-15T04:38:08;6.00;;;3.70;;
13487;SDS011;6816;48.506;9.050;2022-11-15T04:41:10;5.80;;;3.57;;
13487;SDS011;6816;48.506;9.050;2022-11-15T04:44:11;3.80;;;3.37;;
13487;SDS011;6816;48.506;9.050;2022-11-15T04:47:11;4.37;;;3.27;;
13487;SDS011;6816;48.506;9.050;2022-11-15T04:50:14;6.57;;;3.90;;
13487;SDS011;6816;48.506;9.050;2022-11-15T04:53:15;4.20;;;3.50;;
13487;SDS011;6816;48.506;9.050;2022-11-15T04:56:15;6.37;;;4.20;;
13487;SDS011;6816;48.506;9.050;2022-11-15T04:59:16;3.97;;;3.50;;
13487;SDS011;6816;48.506;9.050;2022-11-15T05:02:17;5.27;;;4.00;;
13487;SDS011;6816;48.506;9.050;2022-11-15T05:05:17;4.53;;;3.33;;
13487;SDS011;6816;48.506;9.050;2022-11-15T05:08:18;5.23;;;3.77;;
13487;SDS011;6816;48.506;9.050;2022-11-15T05:11:19;4.40;;;3.63;;
13487;SDS011;6816;48.506;9.050;2022-11-15T05:14:20;4.53;;;3.47;;
13487;SDS011;6816;48.506;9.050;2022-11-15T05:17:21;4.50;;;3.67;;
13487;SDS011;6816;48.506;9.050;2022-11-15T05:20:21;5.40;;;4.23;;
13487;SDS011;6816;48.506;9.050;2022-11-15T05:23:22;3.90;;;3.43;;
13487;SDS011;6816;48.506;9.050;2022-11-15T05:26:22;4.23;;;3.83;;
13487;SDS011;6816;48.506;9.050;2022-11-15T05:29:23;5.70;;;4.17;;
13487;SDS011;6816;48.506;9.050;2022-11-15T05:32:24;5.30;;;3.93;;
13487;SDS011;6816;48.506;9.050;2022-11-15T05:35:50;6.23;;;3.77;;
13487;SDS011;6816;48.506;9.050;2022-11-15T05:38:55;5.47;;;4.13;;
13487;SDS011;6816;48.506;9.050;2022-11-15T05:41:57;5.13;;;3.80;;
13487;SDS011;6816;48.506;9.050;2022-11-15T05:45:01;5.27;;;4.40;;
13487;SDS011;6816;48.506;9.050;2022-11-15T05:48:06;5.47;;;4.23;;
13487;SDS011;6816;48.506;9.050;2022-11-15T05:51:09;5.00;;;4.23;;
13487;SDS011;6816;48.506;9.050;2022-11-15T05:54:12;5.87;;;4.67;;
13487;SDS011;6816;48.506;9.050;2022-11-15T05:57:15;6.47;;;4.30;;
13487;SDS011;6816;48.506;9.050;2022-11-15T06:00:16;5.33;;;4.40;;
13487;SDS011;6816;48.506;9.050;2022-11-15T06:03:17;4.83;;;4.10;;
13487;SDS011;6816;48.506;9.050;2022-11-15T06:06:18;5.03;;;3.97;;
13487;SDS011;6816;48.506;9.050;2022-11-15T06:09:18;4.80;;;3.67;;
13487;SDS011;6816;48.506;9.050;2022-11-15T06:12:19;5.50;;;4.70;;
13487;SDS011;6816;48.506;9.050;2022-11-15T06:15:20;5.07;;;4.20;;
13487;SDS011;6816;48.506;9.050;2022-11-15T06:18:20;4.50;;;3.70;;
13487;SDS011;6816;48.506;9.050;2022-11-15T06:21:21;4.47;;;3.87;;
13487;SDS011;6816;48.506;9.050;2022-11-15T06:24:22;4.83;;;3.83;;
13487;SDS011;6816;48.506;9.050;2022-11-15T06:27:22;5.67;;;3.63;;
13487;SDS011;6816;48.506;9.050;2022-11-15T06:30:23;5.07;;;3.93;;
13487;SDS011;6816;48.506;9.050;2022-11-15T06:33:24;6.63;;;4.57;;
13487;SDS011;6816;48.506;9.050;2022-11-15T06:36:25;4.47;;;3.93;;
13487;SDS011;6816;48.506;9.050;2022-11-15T06:39:26;6.73;;;4.30;;
13487;SDS011;6816;48.506;9.050;2022-11-15T06:42:26;5.13;;;3.90;;
13487;SDS011;6816;48.506;9.050;2022-11-15T06:45:27;5.03;;;4.00;;
13487;SDS011;6816;48.506;9.050;2022-11-15T06:48:28;6.13;;;4.20;;
13487;SDS011;6816;48.506;9.050;2022-11-15T06:51:29;7.70;;;4.47;;
13487;SDS011;6816;48.506;9.050;2022-11-15T06:54:30;5.33;;;4.30;;
13487;SDS011;6816;48.506;9.050;2022-11-15T06:57:30;6.30;;;4.40;;
13487;SDS011;6816;48.506;9.050;2022-11-15T07:00:32;4.90;;;4.00;;
13487;SDS011;6816;48.506;9.050;2022-11-15T07:03:36;5.70;;;4.80;;
13487;SDS011;6816;48.506;9.050;2022-11-15T07:06:41;5.30;;;4.53;;
13487;SDS011;6816;48.506;9.050;2022-11-15T07:09:41;6.13;;;4.13;;
13487;SDS011;6816;48.506;9.050;2022-11-15T07:12:45;4.53;;;3.97;;
13487;SDS011;6816;48.506;9.050;2022-11-15T07:15:47;4.80;;;4.13;;
13487;SDS011;6816;48.506;9.050;2022-11-15T07:18:48;4.97;;;4.20;;
13487;SDS011;6816;48.506;9.050;2022-11-15T07:21:48;5.67;;;4.50;;
13487;SDS011;6816;48.506;9.050;2022-11-15T07:24:49;6.37;;;4.77;;
13487;SDS011;6816;48.506;9.050;2022-11-15T07:27:56;6.37;;;5.63;;
13487;SDS011;6816;48.506;9.050;2022-11-15T07:30:58;6.00;;;5.03;;
13487;SDS011;6816;48.506;9.050;2022-11-15T07:34:03;6.30;;;5.60;;
13487;SDS011;6816;48.506;9.050;2022-11-15T07:37:03;6.10;;;5.30;;
13487;SDS011;6816;48.506;9.050;2022-11-15T07:40:04;6.13;;;5.20;;
13487;SDS011;6816;48.506;9.050;2022-11-15T07:43:06;7.10;;;5.33;;
13487;SDS011;6816;48.506;9.050;2022-11-15T07:46:08;7.03;;;4.97;;
13487;SDS011;6816;48.506;9.050;2022-11-15T07:49:09;6.17;;;5.47;;
13487;SDS011;6816;48.506;9.050;2022-11-15T07:52:10;5.93;;;5.13;;
13487;SDS011;6816;48.506;9.050;2022-11-15T07:55:10;6.03;;;5.07;;
13487;SDS011;6816;48.506;9.050;2022-11-15T07:58:11;6.13;;;5.07;;
13487;SDS011;6816;48.506;9.050;2022-11-15T08:01:12;6.23;;;4.97;;
13487;SDS011;6816;48.506;9.050;2022-11-15T08:04:13;6.73;;;4.57;;
13487;SDS011;6816;48.506;9.050;2022-11-15T08:07:14;5.40;;;4.73;;
13487;SDS011;6816;48.506;9.050;2022-11-15T08:10:14;5.90;;;4.17;;
13487;SDS011;6816;48.506;9.050;2022-11-15T08:13:18;4.97;;;4.50;;
13487;SDS011;6816;48.506;9.050;2022-11-15T08:16:19;6.63;;;4.60;;
13487;SDS011;6816;48.506;9.050;2022-11-15T08:19:20;7.03;;;5.13;;
13487;SDS011;6816;48.506;9.050;2022-11-15T08:22:21;8.97;;;4.70;;
13487;SDS011;6816;48.506;9.050;2022-11-15T08:25:21;6.50;;;4.90;;
13487;SDS011;6816;48.506;9.050;2022-11-15T08:28:22;8.63;;;5.03;;
13487;SDS011;6816;48.506;9.050;2022-11-15T08:31:23;6.30;;;4.60;;
13487;SDS011;6816;48.506;9.050;2022-11-15T08:34:23;7.97;;;5.73;;
13487;SDS011;6816;48.506;9.050;2022-11-15T08:37:24;7.70;;;5.23;;
13487;SDS011;6816;48.506;9.050;2022-11-15T08:40:24;6.37;;;5.10;;
13487;SDS011;6816;48.506;9.050;2022-11-15T08:43:26;5.90;;;4.73;;
13487;SDS011;6816;48.506;9.050;2022-11-15T08:46:27;6.50;;;5.10;;
13487;SDS011;6816;48.506;9.050;2022-11-15T08:49:28;6.63;;;5.23;;
13487;SDS011;6816;48.506;9.050;2022-11-15T08:52:28;7.53;;;5.37;;
13487;SDS011;6816;48.506;9.050;2022-11-15T08:55:29;6.00;;;5.07;;
13487;SDS011;6816;48.506;9.050;2022-11-15T08:58:30;5.37;;;4.80;;
13487;SDS011;6816;48.506;9.050;2022-11-15T09:01:30;5.90;;;5.30;;
13487;SDS011;6816;48.506;9.050;2022-11-15T09:04:32;7.37;;;4.53;;
13487;SDS011;6816;48.506;9.050;2022-11-15T09:07:33;5.90;;;4.90;;
13487;SDS011;6816;48.506;9.050;2022-11-15T09:10:33;5.23;;;4.73;;
13487;SDS011;6816;48.506;9.050;2022-11-15T09:13:34;6.27;;;4.93;;
13487;SDS011;6816;48.506;9.050;2022-11-15T09:16:37;5.77;;;4.90;;
13487;SDS011;6816;48.506;9.050;2022-11-15T09:19:38;4.83;;;4.37;;
13487;SDS011;6816;48.506;9.050;2022-11-15T09:22:38;5.50;;;5.00;;
13487;SDS011;6816;48.506;9.050;2022-11-15T09:25:39;5.50;;;5.00;;
13487;SDS011;6816;48.506;9.050;2022-11-15T09:28:39;5.30;;;4.73;;
13487;SDS011;6816;48.506;9.050;2022-11-15T09:31:41;5.80;;;4.80;;
13487;SDS011;6816;48.506;9.050;2022-11-15T09:34:42;6.33;;;4.90;;
13487;SDS011;6816;48.506;9.050;2022-11-15T09:37:43;6.57;;;4.70;;
13487;SDS011;6816;48.506;9.050;2022-11-15T09:40:43;5.50;;;5.00;;
13487;SDS011;6816;48.506;9.050;2022-11-15T09:44:09;5.60;;;5.00;;
13487;SDS011;6816;48.506;9.050;2022-11-15T09:53:55;6.20;;;4.60;;
13487;SDS011;6816;48.506;9.050;2022-11-15T09:57:13;5.93;;;5.33;;
13487;SDS011;6816;48.506;9.050;2022-11-15T10:00:51;6.40;;;4.60;;
13487;SDS011;6816;48.506;9.050;2022-11-15T10:03:48;5.73;;;5.10;;
13487;SDS011;6816;48.506;9.050;2022-11-15T10:06:52;6.10;;;5.20;;
13487;SDS011;6816;48.506;9.050;2022-11-15T10:13:13;5.23;;;4.73;;
13487;SDS011;6816;48.506;9.050;2022-11-15T10:19:54;5.30;;;4.80;;
13487;SDS011;6816;48.506;9.050;2022-11-15T10:22:59;5.83;;;4.50;;
13487;SDS011;6816;48.506;9.050;2022-11-15T10:26:01;5.53;;;4.57;;
13487;SDS011;6816;48.506;9.050;2022-11-15T10:29:07;5.40;;;4.87;;
13487;SDS011;6816;48.506;9.050;2022-11-15T10:32:09;6.37;;;4.40;;
13487;SDS011;6816;48.506;9.050;2022-11-15T10:35:18;6.17;;;4.33;;
13487;SDS011;6816;48.506;9.050;2022-11-15T10:38:24;5.30;;;4.50;;
13487;SDS011;6816;48.506;9.050;2022-11-15T10:44:31;5.27;;;4.47;;
13487;SDS011;6816;48.506;9.050;2022-11-15T10:47:41;4.53;;;4.13;;
13487;SDS011;6816;48.506;9.050;2022-11-15T10:50:43;5.67;;;4.07;;
13487;SDS011;6816;48.506;9.050;2022-11-15T10:53:45;5.00;;;4.30;;
13487;SDS011;6816;48.506;9.050;2022-11-15T10:56:53;4.93;;;4.20;;
13487;SDS011;6816;48.506;9.050;2022-11-15T11:00:06;4.67;;;4.27;;
13487;SDS011;6816;48.506;9.050;2022-11-15T11:03:30;5.77;;;4.60;;
13487;SDS011;6816;48.506;9.050;2022-11-15T11:06:57;4.80;;;4.30;;
13487;SDS011;6816;48.506;9.050;2022-11-15T11:10:00;6.83;;;4.77;;
13487;SDS011;6816;48.506;9.050;2022-11-15T11:13:44;5.30;;;4.40;;
13487;SDS011;6816;48.506;9.050;2022-11-15T11:16:44;5.27;;;4.60;;
13487;SDS011;6816;48.506;9.050;2022-11-15T11:20:15;5.10;;;4.47;;
13487;SDS011;6816;48.506;9.050;2022-11-15T11:33:31;4.50;;;3.70;;
13487;SDS011;6816;48.506;9.050;2022-11-15T11:36:51;5.03;;;4.40;;
13487;SDS011;6816;48.506;9.050;2022-11-15T11:47:00;4.67;;;3.90;;
13487;SDS011;6816;48.506;9.050;2022-11-15T11:50:10;4.40;;;4.00;;
13487;SDS011;6816;48.506;9.050;2022-11-15T11:53:25;5.33;;;3.70;;
13487;SDS011;6816;48.506;9.050;2022-11-15T11:56:59;5.03;;;3.90;;
13487;SDS011;6816;48.506;9.050;2022-11-15T12:00:04;4.73;;;4.23;;
13487;SDS011;6816;48.506;9.050;2022-11-15T12:06:38;5.67;;;4.60;;
13487;SDS011;6816;48.506;9.050;2022-11-15T12:09:43;5.00;;;4.47;;
13487;SDS011;6816;48.506;9.050;2022-11-15T12:19:22;4.10;;;3.70;;
13487;SDS011;6816;48.506;9.050;2022-11-15T12:22:25;5.77;;;4.30;;
13487;SDS011;6816;48.506;9.050;2022-11-15T12:28:53;6.13;;;4.33;;
13487;SDS011;6816;48.506;9.050;2022-11-15T12:31:58;4.27;;;3.80;;
13487;SDS011;6816;48.506;9.050;2022-11-15T12:35:20;4.07;;;3.67;;
13487;SDS011;6816;48.506;9.050;2022-11-15T12:45:26;4.93;;;3.50;;
13487;SDS011;6816;48.506;9.050;2022-11-15T12:57:55;3.67;;;3.27;;
13487;SDS011;6816;48.506;9.050;2022-11-15T13:04:32;4.10;;;3.33;;
13487;SDS011;6816;48.506;9.050;2022-11-15T13:10:39;5.33;;;3.50;;
13487;SDS011;6816;48.506;9.050;2022-11-15T13:13:42;5.40;;;3.70;;
13487;SDS011;6816;48.506;9.050;2022-11-15T13:16:44;4.53;;;4.07;;
13487;SDS011;6816;48.506;9.050;2022-11-15T13:19:47;5.87;;;4.47;;
13487;SDS011;6816;48.506;9.050;2022-11-15T13:22:53;4.67;;;3.67;;
13487;SDS011;6816;48.506;9.050;2022-11-15T13:29:14;3.60;;;3.23;;
13487;SDS011;6816;48.506;9.050;2022-11-15T13:32:17;5.20;;;3.87;;
13487;SDS011;6816;48.506;9.050;2022-11-15T13:35:22;5.33;;;3.70;;
13487;SDS011;6816;48.506;9.050;2022-11-15T13:41:29;5.23;;;4.37;;
13487;SDS011;6816;48.506;9.050;2022-11-15T13:44:32;6.93;;;5.17;;
13487;SDS011;6816;48.506;9.050;2022-11-15T13:47:33;7.37;;;6.67;;
13487;SDS011;6816;48.506;9.050;2022-11-15T13:50:34;7.10;;;6.30;;
13487;SDS011;6816;48.506;9.050;2022-11-15T13:53:38;9.00;;;7.50;;
13487;SDS011;6816;48.506;9.050;2022-11-15T13:56:44;6.83;;;6.13;;
13487;SDS011;6816;48.506;9.050;2022-11-15T14:02:56;8.23;;;6.67;;
13487;SDS011;6816;48.506;9.050;2022-11-15T14:15:35;10.10;;;6.77;;
13487;SDS011;6816;48.506;9.050;2022-11-15T14:18:41;11.50;;;9.40;;
13487;SDS011;6816;48.506;9.050;2022-11-15T14:25:22;12.73;;;9.83;;
13487;SDS011;6816;48.506;9.050;2022-11-15T14:31:24;11.90;;;6.60;;
13487;SDS011;6816;48.506;9.050;2022-11-15T14:34:25;8.73;;;5.57;;
13487;SDS011;6816;48.506;9.050;2022-11-15T14:37:27;5.67;;;4.80;;
13487;SDS011;6816;48.506;9.050;2022-11-15T14:40:35;9.53;;;5.67;;
13487;SDS011;6816;48.506;9.050;2022-11-15T14:43:36;8.20;;;5.60;;
13487;SDS011;6816;48.506;9.050;2022-11-15T14:46:36;5.57;;;5.07;;
13487;SDS011;6816;48.506;9.050;2022-11-15T14:49:37;6.40;;;4.80;;
13487;SDS011;6816;48.506;9.050;2022-11-15T14:52:38;8.03;;;5.20;;
13487;SDS011;6816;48.506;9.050;2022-11-15T14:55:39;6.90;;;4.93;;
13487;SDS011;6816;48.506;9.050;2022-11-15T14:58:39;10.07;;;7.07;;
13487;SDS011;6816;48.506;9.050;2022-11-15T15:01:40;18.20;;;8.60;;
13487;SDS011;6816;48.506;9.050;2022-11-15T15:04:41;8.47;;;5.13;;
13487;SDS011;6816;48.506;9.050;2022-11-15T15:07:42;8.57;;;5.10;;
13487;SDS011;6816;48.506;9.050;2022-11-15T15:10:43;5.97;;;4.93;;
13487;SDS011;6816;48.506;9.050;2022-11-15T15:13:45;9.53;;;6.40;;
13487;SDS011;6816;48.506;9.050;2022-11-15T15:16:46;10.47;;;7.27;;
13487;SDS011;6816;48.506;9.050;2022-11-15T15:19:46;9.97;;;7.40;;
13487;SDS011;6816;48.506;9.050;2022-11-15T15:22:47;10.30;;;8.37;;
13487;SDS011;6816;48.506;9.050;2022-11-15T15:25:47;9.73;;;7.23;;
13487;SDS011;6816;48.506;9.050;2022-11-15T15:28:49;7.53;;;5.87;;
13487;SDS011;6816;48.506;9.050;2022-11-15T15:31:51;5.50;;;4.93;;
13487;SDS011;6816;48.506;9.050;2022-11-15T15:34:51;6.53;;;5.40;;
13487;SDS011;6816;48.506;9.050;2022-11-15T15:37:52;8.57;;;6.77;;
13487;SDS011;6816;48.506;9.050;2022-11-15T15:40:52;8.27;;;6.30;;
13487;SDS011;6816;48.506;9.050;2022-11-15T15:43:54;8.10;;;6.97;;
13487;SDS011;6816;48.506;9.050;2022-11-15T15:46:55;9.83;;;6.97;;
13487;SDS011;6816;48.506;9.050;2022-11-15T15:49:57;8.47;;;7.33;;
13487;SDS011;6816;48.506;9.050;2022-11-15T15:52:59;10.20;;;8.43;;
13487;SDS011;6816;48.506;9.050;2022-11-15T15:56:02;9.30;;;7.17;;
13487;SDS011;6816;48.506;9.050;2022-11-15T15:59:02;7.03;;;6.33;;
13487;SDS011;6816;48.506;9.050;2022-11-15T16:02:03;7.43;;;5.47;;
13487;SDS011;6816;48.506;9.050;2022-11-15T16:05:04;5.97;;;5.27;;
13487;SDS011;6816;48.506;9.050;2022-11-15T16:08:05;7.50;;;5.43;;
13487;SDS011;6816;48.506;9.050;2022-11-15T16:11:18;7.23;;;6.10;;
13487;SDS011;6816;48.506;9.050;2022-11-15T16:14:19;7.27;;;5.90;;
13487;SDS011;6816;48.506;9.050;2022-11-15T16:17:24;6.60;;;5.43;;
13487;SDS011;6816;48.506;9.050;2022-11-15T16:20:31;8.33;;;5.20;;
13487;SDS011;6816;48.506;9.050;2022-11-15T16:23:34;6.67;;;4.83;;
13487;SDS011;6816;48.506;9.050;2022-11-15T16:26:35;6.70;;;5.50;;
13487;SDS011;6816;48.506;9.050;2022-11-15T16:29:36;7.63;;;5.33;;
13487;SDS011;6816;48.506;9.050;2022-11-15T16:32:37;6.90;;;5.37;;
13487;SDS011;6816;48.506;9.050;2022-11-15T16:35:37;9.00;;;5.83;;
13487;SDS011;6816;48.506;9.050;2022-11-15T16:38:38;7.70;;;5.40;;
13487;SDS011;6816;48.506;9.050;2022-11-15T16:41:39;7.83;;;5.10;;
13487;SDS011;6816;48.506;9.050;2022-11-15T16:44:42;9.13;;;5.73;;
13487;SDS011;6816;48.506;9.050;2022-11-15T16:47:43;7.00;;;5.17;;
13487;SDS011;6816;48.506;9.050;2022-11-15T16:50:44;6.13;;;5.43;;
13487;SDS011;6816;48.506;9.050;2022-11-15T16:53:45;8.10;;;5.90;;
13487;SDS011;6816;48.506;9.050;2022-11-15T16:56:47;6.20;;;5.60;;
13487;SDS011;6816;48.506;9.050;2022-11-15T16:59:48;6.77;;;5.97;;
13487;SDS011;6816;48.506;9.050;2022-11-15T17:02:49;7.07;;;5.30;;
13487;SDS011;6816;48.506;9.050;2022-11-15T17:05:51;8.90;;;6.57;;
13487;SDS011;6816;48.506;9.050;2022-11-15T17:08:51;10.30;;;6.00;;
13487;SDS011;6816;48.506;9.050;2022-11-15T17:11:53;8.03;;;5.47;;
13487;SDS011;6816;48.506;9.050;2022-11-15T17:14:54;7.13;;;5.90;;
13487;SDS011;6816;48.506;9.050;2022-11-15T17:17:54;9.30;;;6.00;;
13487;SDS011;6816;48.506;9.050;2022-11-15T17:20:55;11.27;;;6.40;;
13487;SDS011;6816;48.506;9.050;2022-11-15T17:23:57;8.83;;;7.17;;
13487;SDS011;6816;48.506;9.050;2022-11-15T17:26:58;10.90;;;7.43;;
13487;SDS011;6816;48.506;9.050;2022-11-15T17:29:59;8.47;;;6.90;;
13487;SDS011;6816;48.506;9.050;2022-11-15T17:33:00;11.07;;;6.83;;
13487;SDS011;6816;48.506;9.050;2022-11-15T17:36:01;7.80;;;7.00;;
13487;SDS011;6816;48.506;9.050;2022-11-15T17:39:04;7.57;;;6.77;;
13487;SDS011;6816;48.506;9.050;2022-11-15T17:42:04;9.17;;;7.07;;
13487;SDS011;6816;48.506;9.050;2022-11-15T17:45:05;8.70;;;7.07;;
13487;SDS011;6816;48.506;9.050;2022-11-15T17:48:06;8.47;;;6.30;;
13487;SDS011;6816;48.506;9.050;2022-11-15T17:51:08;7.87;;;6.37;;
13487;SDS011;6816;48.506;9.050;2022-11-15T17:54:10;7.43;;;6.63;;
13487;SDS011;6816;48.506;9.050;2022-11-15T17:57:12;8.30;;;6.60;;
13487;SDS011;6816;48.506;9.050;2022-11-15T18:00:12;9.30;;;6.17;;
13487;SDS011;6816;48.506;9.050;2022-11-15T18:03:13;7.67;;;6.30;;
13487;SDS011;6816;48.506;9.050;2022-11-15T18:06:14;6.53;;;5.70;;
13487;SDS011;6816;48.506;9.050;2022-11-15T18:09:16;7.20;;;5.83;;
13487;SDS011;6816;48.506;9.050;2022-11-15T18:12:18;7.30;;;5.70;;
13487;SDS011;6816;48.506;9.050;2022-11-15T18:15:18;7.97;;;6.37;;
13487;SDS011;6816;48.506;9.050;2022-11-15T18:18:20;7.20;;;5.90;;
13487;SDS011;6816;48.506;9.050;2022-11-15T18:21:22;7.80;;;6.70;;
13487;SDS011;6816;48.506;9.050;2022-11-15T18:24:25;7.77;;;6.87;;
13487;SDS011;6816;48.506;9.050;2022-11-15T18:27:33;12.73;;;6.73;;
13487;SDS011;6816;48.506;9.050;2022-11-15T18:30:36;10.87;;;6.57;;
13487;SDS011;6816;48.506;9.050;2022-11-15T18:33:37;7.97;;;6.63;;
13487;SDS011;6816;48.506;9.050;2022-11-15T18:36:38;11.57;;;6.97;;
13487;SDS011;6816;48.506;9.050;2022-11-15T18:39:39;8.23;;;6.40;;
13487;SDS011;6816;48.506;9.050;2022-11-15T18:42:39;9.33;;;6.37;;
13487;SDS011;6816;48.506;9.050;2022-11-15T18:45:40;7.53;;;6.07;;
13487;SDS011;6816;48.506;9.050;2022-11-15T18:48:41;9.50;;;6.90;;
13487;SDS011;6816;48.506;9.050;2022-11-15T18:51:43;7.97;;;6.30;;
13487;SDS011;6816;48.506;9.050;2022-11-15T18:54:44;8.90;;;7.30;;
13487;SDS011;6816;48.506;9.050;2022-11-15T18:57:44;9.17;;;7.63;;
13487;SDS011;6816;48.506;9.050;2022-11-15T19:00:45;9.83;;;7.67;;
13487;SDS011;6816;48.506;9.050;2022-11-15T19:03:46;12.20;;;9.77;;
13487;SDS011;6816;48.506;9.050;2022-11-15T19:06:48;12.20;;;9.47;;
13487;SDS011;6816;48.506;9.050;2022-11-15T19:09:49;10.33;;;8.57;;
13487;SDS011;6816;48.506;9.050;2022-11-15T19:12:50;14.10;;;11.37;;
13487;SDS011;6816;48.506;9.050;2022-11-15T19:15:55;17.80;;;13.40;;
13487;SDS011;6816;48.506;9.050;2022-11-15T19:19:01;16.33;;;12.90;;
13487;SDS011;6816;48.506;9.050;2022-11-15T19:22:04;15.20;;;11.90;;
13487;SDS011;6816;48.506;9.050;2022-11-15T19:25:04;17.27;;;12.93;;
13487;SDS011;6816;48.506;9.050;2022-11-15T19:28:07;16.20;;;13.37;;
13487;SDS011;6816;48.506;9.050;2022-11-15T19:31:12;27.43;;;19.70;;
13487;SDS011;6816;48.506;9.050;2022-11-15T19:34:14;29.50;;;18.53;;
13487;SDS011;6816;48.506;9.050;2022-11-15T19:37:15;25.17;;;18.60;;
13487;SDS011;6816;48.506;9.050;2022-11-15T19:40:16;25.47;;;18.87;;
13487;SDS011;6816;48.506;9.050;2022-11-15T19:43:16;21.77;;;15.67;;
13487;SDS011;6816;48.506;9.050;2022-11-15T19:46:20;18.90;;;14.13;;
13487;SDS011;6816;48.506;9.050;2022-11-15T19:49:22;18.13;;;13.40;;
13487;SDS011;6816;48.506;9.050;2022-11-15T19:52:23;18.63;;;13.57;;
13487;SDS011;6816;48.506;9.050;2022-11-15T19:55:23;17.43;;;13.00;;
13487;SDS011;6816;48.506;9.050;2022-11-15T19:58:24;17.20;;;13.37;;
13487;SDS011;6816;48.506;9.050;2022-11-15T20:01:31;17.77;;;12.90;;
13487;SDS011;6816;48.506;9.050;2022-11-15T20:04:35;16.30;;;11.77;;
13487;SDS011;6816;48.506;9.050;2022-11-15T20:07:35;15.23;;;11.57;;
13487;SDS011;6816;48.506;9.050;2022-11-15T20:10:36;15.50;;;11.77;;
13487;SDS011;6816;48.506;9.050;2022-11-15T20:13:37;15.13;;;11.13;;
13487;SDS011;6816;48.506;9.050;2022-11-15T20:16:38;12.37;;;9.93;;
13487;SDS011;6816;48.506;9.050;2022-11-15T20:19:38;11.73;;;9.93;;
13487;SDS011;6816;48.506;9.050;2022-11-15T20:22:39;10.13;;;8.50;;
13487;SDS011;6816;48.506;9.050;2022-11-15T20:25:42;11.43;;;9.70;;
13487;SDS011;6816;48.506;9.050;2022-11-15T20:28:44;14.13;;;9.27;;
13487;SDS011;6816;48.506;9.050;2022-11-15T20:31:44;10.97;;;8.97;;
13487;SDS011;6816;48.506;9.050;2022-11-15T20:34:45;11.17;;;9.03;;
13487;SDS011;6816;48.506;9.050;2022-11-15T20:37:46;10.43;;;8.30;;